createdAt,value
2019-03-17T00:00:28.418Z,19.47
2019-03-17T00:02:56.984Z,20.77
2019-03-17T00:05:25.574Z,19.87
2019-03-17T00:07:54.195Z,20.07
2019-03-17T00:10:22.734Z,23.77
2019-03-17T00:12:51.406Z,22.33
2019-03-17T00:15:20.283Z,24.40
2019-03-17T00:17:48.838Z,23.83
2019-03-17T00:20:17.415Z,22.43
2019-03-17T00:22:46.033Z,22.87
2019-03-17T00:25:14.584Z,23.87
2019-03-17T00:27:43.200Z,21.95
2019-03-17T00:30:12.666Z,22.70
2019-03-17T00:32:41.210Z,23.03
2019-03-17T00:35:09.958Z,19.90
2019-03-17T00:37:38.512Z,19.10
2019-03-17T00:40:11.670Z,18.40
2019-03-17T00:42:40.430Z,18.03
2019-03-17T00:45:11.521Z,16.07
2019-03-17T00:47:40.249Z,18.10
2019-03-17T00:50:11.913Z,20.03
2019-03-17T00:52:40.393Z,18.00
2019-03-17T00:55:09.009Z,17.85
2019-03-17T00:57:37.513Z,18.17
2019-03-17T01:00:12.404Z,19.60
2019-03-17T01:02:40.992Z,18.17
2019-03-17T01:05:10.596Z,19.07
2019-03-17T01:07:39.230Z,18.40
2019-03-17T01:10:09.319Z,19.03
2019-03-17T01:12:37.823Z,18.97
2019-03-17T01:15:07.443Z,19.33
2019-03-17T01:17:35.990Z,18.53
2019-03-17T01:20:06.829Z,21.13
2019-03-17T01:22:35.381Z,25.70
2019-03-17T01:25:05.543Z,26.73
2019-03-17T01:27:34.151Z,25.50
2019-03-17T01:30:02.749Z,29.90
2019-03-17T01:32:31.220Z,27.37
2019-03-17T01:35:08.431Z,30.17
2019-03-17T01:37:29.918Z,30.63
2019-03-17T01:39:58.461Z,30.63
2019-03-17T01:42:26.970Z,31.20
2019-03-17T01:44:55.523Z,32.08
2019-03-17T01:47:24.073Z,32.33
2019-03-17T01:49:53.566Z,30.87
2019-03-17T01:52:22.142Z,29.83
2019-03-17T01:54:50.686Z,26.87
2019-03-17T01:57:19.194Z,27.20
2019-03-17T01:59:47.746Z,26.97
2019-03-17T02:02:16.333Z,27.00
2019-03-17T02:04:44.828Z,25.33
2019-03-17T02:07:13.298Z,23.87
2019-03-17T02:09:41.768Z,22.40
2019-03-17T02:12:10.276Z,22.23
2019-03-17T02:14:38.829Z,21.03
2019-03-17T02:17:07.336Z,21.97
2019-03-17T02:19:36.004Z,21.62
2019-03-17T02:22:04.786Z,22.57
2019-03-17T02:24:33.251Z,25.72
2019-03-17T02:27:01.858Z,26.20
2019-03-17T02:29:31.321Z,28.10
2019-03-17T02:31:59.828Z,29.87
2019-03-17T02:34:28.470Z,27.47
2019-03-17T02:36:56.949Z,26.73
2019-03-17T02:39:26.375Z,28.43
2019-03-17T02:41:55.028Z,30.37
2019-03-17T02:44:23.678Z,29.67
2019-03-17T02:46:52.215Z,29.90
2019-03-17T02:49:20.936Z,27.53
2019-03-17T02:51:49.477Z,28.33
2019-03-17T02:54:18.009Z,28.40
2019-03-17T02:56:46.518Z,28.53
2019-03-17T02:59:15.066Z,30.08
2019-03-17T03:01:43.551Z,27.47
2019-03-17T03:04:12.345Z,25.45
2019-03-17T03:06:40.891Z,27.00
2019-03-17T03:09:10.354Z,25.93
2019-03-17T03:11:39.010Z,27.37
2019-03-17T03:14:07.605Z,26.70
2019-03-17T03:16:36.142Z,29.10
2019-03-17T03:19:04.900Z,26.07
2019-03-17T03:21:33.464Z,26.03
2019-03-17T03:24:02.023Z,24.60
2019-03-17T03:26:30.601Z,23.60
2019-03-17T03:28:59.154Z,25.13
2019-03-17T03:31:27.740Z,26.20
2019-03-17T03:33:56.481Z,26.87
2019-03-17T03:36:26.163Z,29.07
2019-03-17T03:38:54.705Z,26.45
2019-03-17T03:41:23.216Z,29.33
2019-03-17T03:43:51.763Z,27.35
2019-03-17T03:46:20.379Z,27.93
2019-03-17T03:48:49.355Z,24.47
2019-03-17T03:51:17.972Z,26.50
2019-03-17T03:53:46.520Z,26.97
2019-03-17T03:56:15.210Z,24.67
2019-03-17T03:58:43.793Z,27.83
2019-03-17T04:01:12.586Z,24.52
2019-03-17T04:03:41.305Z,24.03
2019-03-17T04:06:25.241Z,24.40
2019-03-17T04:08:40.173Z,26.13
2019-03-17T04:11:09.372Z,26.68
2019-03-17T04:13:37.876Z,26.17
2019-03-17T04:16:06.406Z,24.47
2019-03-17T04:18:35.007Z,26.83
2019-03-17T04:21:03.557Z,25.77
2019-03-17T04:23:32.067Z,24.15
2019-03-17T04:26:00.640Z,25.67
2019-03-17T04:28:29.187Z,24.37
2019-03-17T04:30:57.748Z,26.97
2019-03-17T04:33:26.334Z,23.80
2019-03-17T04:35:54.880Z,24.07
2019-03-17T04:38:23.472Z,24.70
2019-03-17T04:40:54.066Z,25.27
2019-03-17T04:43:22.686Z,25.40
2019-03-17T04:45:51.304Z,25.67
2019-03-17T04:48:19.893Z,23.80
2019-03-17T04:50:49.396Z,23.93
2019-03-17T04:53:17.975Z,23.47
2019-03-17T04:55:46.521Z,24.17
2019-03-17T04:58:15.092Z,24.37
2019-03-17T05:00:43.652Z,22.47
2019-03-17T05:03:12.233Z,21.20
2019-03-17T05:05:40.792Z,23.17
2019-03-17T05:08:09.401Z,21.30
2019-03-17T05:10:38.552Z,21.57
2019-03-17T05:13:07.301Z,19.80
2019-03-17T05:15:35.781Z,21.47
2019-03-17T05:18:04.290Z,22.07
2019-03-17T05:20:32.772Z,21.07
2019-03-17T05:23:01.323Z,20.00
2019-03-17T05:25:29.831Z,18.40
2019-03-17T05:27:58.458Z,18.97
2019-03-17T05:30:27.426Z,17.57
2019-03-17T05:32:58.924Z,16.80
2019-03-17T05:35:27.476Z,14.97
2019-03-17T05:37:56.032Z,16.17
2019-03-17T05:40:24.539Z,14.97
2019-03-17T05:42:53.021Z,15.75
2019-03-17T05:45:21.491Z,15.00
2019-03-17T05:47:49.997Z,15.78
2019-03-17T05:50:18.545Z,14.07
2019-03-17T05:52:47.393Z,12.83
2019-03-17T05:55:15.968Z,14.23
2019-03-17T05:57:44.441Z,14.60
2019-03-17T06:00:15.614Z,14.87
2019-03-17T06:03:03.528Z,13.03
2019-03-17T06:05:32.113Z,14.87
2019-03-17T06:08:00.657Z,13.17
2019-03-17T06:10:29.161Z,13.67
2019-03-17T06:12:57.709Z,10.90
2019-03-17T06:15:26.184Z,11.67
2019-03-17T06:17:54.683Z,11.70
2019-03-17T06:20:23.162Z,9.73
2019-03-17T06:22:57.729Z,9.70
2019-03-17T06:25:30.682Z,9.10
2019-03-17T06:27:59.307Z,9.33
2019-03-17T06:30:27.860Z,9.33
2019-03-17T06:32:56.458Z,9.50
2019-03-17T06:35:24.992Z,9.37
2019-03-17T06:37:53.541Z,8.87
2019-03-17T06:40:22.069Z,8.83
2019-03-17T06:42:54.267Z,9.35
2019-03-17T06:45:22.494Z,7.80
2019-03-17T06:47:52.670Z,7.87
2019-03-17T06:50:21.213Z,8.20
2019-03-17T06:52:49.786Z,7.25
2019-03-17T06:55:33.333Z,6.10
2019-03-17T06:57:53.071Z,7.40
2019-03-17T07:00:21.614Z,5.95
2019-03-17T07:02:50.202Z,5.25
2019-03-17T07:05:18.754Z,5.50
2019-03-17T07:07:47.311Z,5.95
2019-03-17T07:10:17.486Z,6.20
2019-03-17T07:12:45.956Z,5.30
2019-03-17T07:15:14.512Z,4.62
2019-03-17T07:17:43.481Z,4.58
2019-03-17T07:20:13.608Z,4.95
2019-03-17T07:22:42.148Z,4.17
2019-03-17T07:25:10.829Z,4.30
2019-03-17T07:27:39.553Z,4.40
2019-03-17T07:30:14.801Z,4.65
2019-03-17T07:32:43.626Z,4.60
2019-03-17T07:35:13.442Z,6.58
2019-03-17T07:37:41.982Z,5.67
2019-03-17T07:40:14.037Z,6.10
2019-03-17T07:42:48.036Z,5.80
2019-03-17T07:45:21.299Z,5.63
2019-03-17T07:47:51.774Z,5.37
2019-03-17T07:50:20.259Z,5.78
2019-03-17T07:52:48.811Z,4.97
2019-03-17T07:55:17.549Z,4.75
2019-03-17T07:57:46.146Z,5.05
2019-03-17T08:00:15.021Z,5.47
2019-03-17T08:02:45.695Z,5.03
2019-03-17T08:05:14.248Z,4.63
2019-03-17T08:07:42.814Z,4.75
2019-03-17T08:10:15.927Z,3.93
2019-03-17T08:12:44.516Z,3.87
2019-03-17T08:15:14.116Z,3.83
2019-03-17T08:17:42.710Z,4.22
2019-03-17T08:20:12.032Z,3.90
2019-03-17T08:22:40.649Z,3.50
2019-03-17T08:25:10.309Z,2.92
2019-03-17T08:27:38.994Z,3.00
2019-03-17T08:30:14.759Z,2.58
2019-03-17T08:32:43.408Z,2.87
2019-03-17T08:35:13.060Z,2.58
2019-03-17T08:37:41.686Z,2.10
2019-03-17T08:40:17.872Z,2.17
2019-03-17T08:42:46.421Z,2.10
2019-03-17T08:45:15.310Z,2.30
2019-03-17T08:47:56.522Z,2.30
2019-03-17T08:50:15.051Z,2.35
2019-03-17T08:52:43.599Z,2.64
2019-03-17T08:55:12.438Z,3.27
2019-03-17T08:57:41.092Z,3.00
2019-03-17T09:00:17.729Z,3.58
2019-03-17T09:02:46.291Z,3.72
2019-03-17T09:05:14.841Z,3.72
2019-03-17T09:07:43.316Z,3.55
2019-03-17T09:10:13.562Z,3.33
2019-03-17T09:12:42.259Z,4.20
2019-03-17T09:15:10.971Z,3.80
2019-03-17T09:17:39.549Z,3.87
2019-03-17T09:20:11.007Z,3.58
2019-03-17T09:22:39.638Z,2.98
2019-03-17T09:25:10.642Z,3.50
2019-03-17T09:27:39.612Z,3.25
2019-03-17T09:30:11.394Z,3.50
2019-03-17T09:32:39.983Z,3.10
2019-03-17T09:35:09.979Z,3.35
2019-03-17T09:37:38.633Z,3.15
2019-03-17T09:40:10.469Z,4.25
2019-03-17T09:42:38.943Z,4.10
2019-03-17T09:45:10.134Z,4.95
2019-03-17T09:47:41.124Z,4.57
2019-03-17T09:50:17.081Z,4.37
2019-03-17T09:52:45.563Z,4.42
2019-03-17T09:55:14.447Z,4.40
2019-03-17T09:57:43.166Z,4.00
2019-03-17T10:00:19.450Z,4.33
2019-03-17T10:02:48.164Z,4.17
2019-03-17T10:05:16.724Z,3.92
2019-03-17T10:07:45.352Z,3.70
2019-03-17T10:10:17.013Z,3.30
2019-03-17T10:12:47.187Z,3.25
2019-03-17T10:15:17.948Z,2.90
2019-03-17T10:17:46.602Z,2.90
2019-03-17T10:20:20.284Z,3.13
2019-03-17T10:22:48.845Z,2.90
2019-03-17T10:25:17.514Z,2.83
2019-03-17T10:27:46.148Z,2.85
2019-03-17T10:30:19.693Z,2.85
2019-03-17T10:32:48.276Z,3.00
2019-03-17T10:35:17.297Z,2.25
2019-03-17T10:37:45.946Z,2.17
2019-03-17T10:40:15.595Z,2.08
2019-03-17T10:42:44.225Z,2.20
2019-03-17T10:45:13.522Z,2.08
2019-03-17T10:47:42.104Z,2.07
2019-03-17T10:50:20.433Z,2.00
2019-03-17T10:52:49.048Z,2.27
2019-03-17T10:55:17.633Z,2.12
2019-03-17T10:57:46.195Z,1.80
2019-03-17T11:00:19.165Z,1.75
2019-03-17T11:02:47.787Z,2.33
2019-03-17T11:05:16.582Z,1.70
2019-03-17T11:07:45.769Z,1.70
2019-03-17T11:10:14.901Z,1.60
2019-03-17T11:12:43.548Z,1.57
2019-03-17T11:15:19.915Z,1.80
2019-03-17T11:17:48.491Z,1.47
2019-03-17T11:20:17.194Z,1.90
2019-03-17T11:22:45.813Z,1.92
2019-03-17T11:25:16.397Z,2.20
2019-03-17T11:27:44.950Z,1.90
2019-03-17T11:30:15.151Z,1.82
2019-03-17T11:32:43.708Z,2.25
2019-03-17T11:35:12.319Z,2.70
2019-03-17T11:37:40.886Z,2.77
2019-03-17T11:40:12.792Z,2.27
2019-03-17T11:42:41.416Z,2.80
2019-03-17T11:45:12.322Z,2.83
2019-03-17T11:47:40.981Z,2.72
2019-03-17T11:50:19.879Z,2.25
2019-03-17T11:52:48.553Z,2.80
2019-03-17T11:55:17.284Z,4.78
2019-03-17T11:57:46.188Z,2.50
2019-03-17T12:00:16.798Z,2.87
2019-03-17T12:02:45.434Z,2.70
2019-03-17T12:05:14.038Z,6.83
2019-03-17T12:07:42.632Z,12.75
2019-03-17T12:10:16.343Z,8.00
2019-03-17T12:12:44.905Z,5.12
2019-03-17T12:15:24.672Z,8.55
2019-03-17T12:17:53.247Z,2.95
2019-03-17T12:20:21.804Z,3.70
2019-03-17T12:22:50.364Z,8.08
2019-03-17T12:25:19.484Z,3.30
2019-03-17T12:27:48.045Z,2.98
2019-03-17T12:30:26.542Z,3.50
2019-03-17T12:32:55.974Z,3.20
2019-03-17T12:35:24.539Z,7.70
2019-03-17T12:37:53.215Z,11.53
2019-03-17T12:40:21.788Z,3.20
2019-03-17T12:42:50.550Z,6.35
2019-03-17T12:45:19.107Z,4.53
2019-03-17T12:47:47.704Z,5.75
2019-03-17T12:50:22.222Z,5.12
2019-03-17T12:52:50.771Z,4.08
2019-03-17T12:55:19.455Z,7.97
2019-03-17T12:57:47.954Z,5.53
2019-03-17T13:00:18.623Z,5.90
2019-03-17T13:02:47.206Z,2.80
2019-03-17T13:05:15.819Z,2.65
2019-03-17T13:07:45.281Z,1.98
2019-03-17T13:10:18.563Z,2.42
2019-03-17T13:12:47.162Z,1.95
2019-03-17T13:15:16.673Z,2.10
2019-03-17T13:17:45.439Z,1.72
2019-03-17T13:20:18.135Z,1.60
2019-03-17T13:22:46.694Z,1.50
2019-03-17T13:25:15.271Z,1.55
2019-03-17T13:27:43.834Z,1.70
2019-03-17T13:30:17.412Z,2.20
2019-03-17T13:32:46.096Z,1.90
2019-03-17T13:35:15.300Z,1.90
2019-03-17T13:37:43.952Z,1.60
2019-03-17T13:40:28.158Z,1.75
2019-03-17T13:42:46.792Z,2.90
2019-03-17T13:45:15.501Z,2.40
2019-03-17T13:47:44.092Z,2.17
2019-03-17T13:50:22.571Z,15.32
2019-03-17T13:52:51.103Z,8.58
2019-03-17T13:55:19.749Z,11.43
2019-03-17T13:58:05.775Z,4.58
2019-03-17T14:00:34.254Z,4.28
2019-03-17T14:03:02.841Z,1.80
2019-03-17T14:05:31.347Z,5.40
2019-03-17T14:07:59.907Z,5.00
2019-03-17T14:10:39.970Z,3.92
2019-03-17T14:12:58.654Z,2.90
2019-03-17T14:15:27.191Z,4.47
2019-03-17T14:17:56.093Z,4.45
2019-03-17T14:20:25.472Z,4.70
2019-03-17T14:22:54.029Z,3.15
2019-03-17T14:25:25.706Z,2.40
2019-03-17T14:27:54.222Z,2.20
2019-03-17T14:30:22.883Z,1.75
2019-03-17T14:32:52.041Z,2.33
2019-03-17T14:35:21.639Z,1.60
2019-03-17T14:37:50.589Z,1.95
2019-03-17T14:40:19.549Z,2.00
2019-03-17T14:42:51.310Z,1.83
2019-03-17T14:45:20.354Z,1.90
2019-03-17T14:47:49.166Z,2.58
2019-03-17T14:50:20.548Z,2.90
2019-03-17T14:52:49.076Z,2.12
2019-03-17T14:55:17.734Z,2.10
2019-03-17T14:57:46.359Z,2.27
2019-03-17T15:00:22.035Z,2.45
2019-03-17T15:02:50.697Z,2.10
2019-03-17T15:05:19.626Z,2.27
2019-03-17T15:07:48.224Z,3.15
2019-03-17T15:10:24.081Z,4.12
2019-03-17T15:12:52.702Z,8.30
2019-03-17T15:15:22.109Z,8.58
2019-03-17T15:17:50.763Z,9.30
2019-03-17T15:20:23.790Z,13.90
2019-03-17T15:22:52.422Z,11.30
2019-03-17T15:25:21.842Z,7.62
2019-03-17T15:27:50.401Z,4.75
2019-03-17T15:30:21.595Z,6.67
2019-03-17T15:32:50.174Z,4.22
2019-03-17T15:35:18.814Z,4.30
2019-03-17T15:37:47.430Z,8.00
2019-03-17T15:40:22.131Z,6.08
2019-03-17T15:42:50.681Z,5.28
2019-03-17T15:45:21.294Z,10.15
2019-03-17T15:47:49.883Z,6.25
2019-03-17T15:50:24.355Z,5.28
2019-03-17T15:52:52.999Z,5.62
2019-03-17T15:55:22.001Z,6.60
2019-03-17T15:57:50.698Z,6.50
2019-03-17T16:00:25.643Z,4.67
2019-03-17T16:02:51.201Z,5.03
2019-03-17T16:05:20.105Z,5.03
2019-03-17T16:07:48.623Z,5.00
2019-03-17T16:10:21.416Z,8.03
2019-03-17T16:12:50.122Z,6.33
2019-03-17T16:15:18.692Z,13.83
2019-03-17T16:17:47.282Z,23.20
2019-03-17T16:20:21.769Z,34.03
2019-03-17T16:22:50.407Z,34.80
2019-03-17T16:25:21.098Z,22.27
2019-03-17T16:27:49.663Z,16.93
2019-03-17T16:30:21.885Z,37.67
2019-03-17T16:32:50.718Z,22.25
2019-03-17T16:35:19.458Z,11.50
2019-03-17T16:37:48.422Z,8.28
2019-03-17T16:40:20.014Z,9.15
2019-03-17T16:42:48.568Z,29.23
2019-03-17T16:45:18.588Z,20.20
2019-03-17T16:47:47.251Z,10.90
2019-03-17T16:50:21.692Z,9.18
2019-03-17T16:52:50.814Z,5.90
2019-03-17T16:55:19.499Z,6.03
2019-03-17T16:57:48.124Z,5.27
2019-03-17T17:00:24.068Z,7.60
2019-03-17T17:02:52.808Z,17.95
2019-03-17T17:05:22.519Z,20.32
2019-03-17T17:07:51.083Z,29.30
2019-03-17T17:10:30.399Z,29.80
2019-03-17T17:12:59.035Z,53.13
2019-03-17T17:15:29.714Z,21.68
2019-03-17T17:17:58.443Z,16.20
2019-03-17T17:20:37.918Z,21.60
2019-03-17T17:23:06.755Z,18.12
2019-03-17T17:25:35.343Z,14.57
2019-03-17T17:28:04.084Z,13.15
2019-03-17T17:30:32.769Z,16.75
2019-03-17T17:33:01.473Z,11.73
2019-03-17T17:35:30.186Z,27.65
2019-03-17T17:37:58.743Z,16.05
2019-03-17T17:40:28.017Z,20.27
2019-03-17T17:42:56.628Z,17.57
2019-03-17T17:45:25.852Z,13.20
2019-03-17T17:47:54.463Z,12.68
2019-03-17T17:50:28.342Z,12.63
2019-03-17T17:52:57.096Z,13.00
2019-03-17T17:55:27.171Z,10.15
2019-03-17T17:58:15.146Z,8.70
2019-03-17T18:00:50.753Z,14.40
2019-03-17T18:03:19.316Z,13.60
2019-03-17T18:05:48.020Z,15.63
2019-03-17T18:08:16.632Z,16.25
2019-03-17T18:10:45.196Z,11.65
2019-03-17T18:13:13.771Z,11.25
2019-03-17T18:15:42.467Z,12.63
2019-03-17T18:18:11.263Z,53.48
2019-03-17T18:20:39.863Z,18.85
2019-03-17T18:23:17.378Z,14.58
2019-03-17T18:25:38.725Z,13.65
2019-03-17T18:28:07.293Z,12.87
2019-03-17T18:30:35.927Z,10.93
2019-03-17T18:33:04.575Z,12.20
2019-03-17T18:35:33.149Z,11.70
2019-03-17T18:38:02.714Z,12.65
2019-03-17T18:40:31.234Z,11.18
2019-03-17T18:42:59.793Z,12.18
2019-03-17T18:45:32.583Z,12.37
2019-03-17T18:48:01.142Z,13.68
2019-03-17T18:50:29.725Z,14.00
2019-03-17T18:52:58.314Z,15.28
2019-03-17T18:55:26.882Z,14.18
2019-03-17T18:57:55.488Z,13.15
2019-03-17T19:00:25.383Z,13.88
2019-03-17T19:02:54.292Z,13.03
2019-03-17T19:05:22.891Z,11.75
2019-03-17T19:07:51.531Z,11.15
2019-03-17T19:10:20.947Z,12.00
2019-03-17T19:12:49.627Z,11.12
2019-03-17T19:15:23.529Z,11.53
2019-03-17T19:17:52.185Z,12.03
2019-03-17T19:20:22.776Z,11.53
2019-03-17T19:22:52.356Z,12.55
2019-03-17T19:25:23.004Z,11.88
2019-03-17T19:27:51.567Z,10.55
2019-03-17T19:30:21.092Z,10.40
2019-03-17T19:32:49.752Z,9.73
2019-03-17T19:35:18.816Z,10.10
2019-03-17T19:37:47.422Z,10.30
2019-03-17T19:40:19.023Z,10.30
2019-03-17T19:42:58.148Z,10.40
2019-03-17T19:45:18.136Z,9.68
2019-03-17T19:47:46.772Z,15.60
2019-03-17T19:50:18.472Z,22.62
2019-03-17T19:52:47.067Z,12.28
2019-03-17T19:55:15.634Z,12.58
2019-03-17T19:57:51.117Z,12.55
2019-03-17T20:00:23.135Z,10.82
2019-03-17T20:02:51.686Z,10.35
2019-03-17T20:05:20.409Z,11.63
2019-03-17T20:07:49.140Z,11.33
2019-03-17T20:10:28.629Z,10.53
2019-03-17T20:13:10.817Z,9.65
2019-03-17T20:15:30.660Z,10.55
2019-03-17T20:17:59.228Z,9.68
2019-03-17T20:20:27.789Z,10.05
2019-03-17T20:22:56.466Z,9.58
2019-03-17T20:25:25.054Z,9.43
2019-03-17T20:27:54.281Z,9.98
2019-03-17T20:30:23.079Z,12.13
2019-03-17T20:32:51.586Z,10.78
2019-03-17T20:35:20.148Z,11.07
2019-03-17T20:37:48.942Z,8.28
2019-03-17T20:40:18.505Z,10.25
2019-03-17T20:42:47.925Z,8.83
2019-03-17T20:45:20.021Z,8.88
2019-03-17T20:47:47.084Z,10.65
2019-03-17T20:50:17.472Z,32.35
2019-03-17T20:52:46.061Z,23.07
2019-03-17T20:55:14.721Z,10.38
2019-03-17T20:57:43.360Z,11.63
2019-03-17T21:00:35.730Z,12.60
2019-03-17T21:03:04.447Z,8.95
2019-03-17T21:05:32.995Z,10.30
2019-03-17T21:08:01.600Z,11.90
2019-03-17T21:10:30.157Z,11.10
2019-03-17T21:12:58.871Z,10.90
2019-03-17T21:15:27.493Z,10.38
2019-03-17T21:17:56.039Z,8.00
2019-03-17T21:20:25.620Z,5.62
2019-03-17T21:22:54.207Z,7.37
2019-03-17T21:25:22.802Z,5.80
2019-03-17T21:27:52.164Z,6.60
2019-03-17T21:30:27.584Z,83.95
2019-03-17T21:32:57.111Z,40.45
2019-03-17T21:35:25.661Z,100.92
2019-03-17T21:37:54.348Z,55.80
2019-03-17T21:40:22.861Z,63.15
2019-03-17T21:42:51.413Z,57.80
2019-03-17T21:45:20.052Z,110.42
2019-03-17T21:47:49.422Z,40.98
2019-03-17T21:50:19.121Z,38.13
2019-03-17T21:52:47.875Z,8.50
2019-03-17T21:55:17.363Z,5.35
2019-03-17T21:57:46.174Z,8.03
2019-03-17T22:00:18.960Z,8.68
2019-03-17T22:02:47.661Z,8.65
2019-03-17T22:05:16.754Z,7.70
2019-03-17T22:07:50.308Z,5.62
2019-03-17T22:10:23.143Z,4.65
2019-03-17T22:12:51.685Z,4.70
2019-03-17T22:15:21.739Z,4.40
2019-03-17T22:17:50.366Z,4.17
2019-03-17T22:20:19.012Z,4.47
2019-03-17T22:22:47.729Z,4.40
2019-03-17T22:25:16.957Z,4.27
2019-03-17T22:27:45.523Z,4.33
2019-03-17T22:30:19.119Z,3.70
2019-03-17T22:32:47.972Z,3.80
2019-03-17T22:35:16.611Z,3.67
2019-03-17T22:37:45.261Z,3.33
2019-03-17T22:40:17.812Z,3.37
2019-03-17T22:42:46.509Z,3.90
2019-03-17T22:45:15.978Z,3.57
2019-03-17T22:47:44.597Z,3.50
2019-03-17T22:50:17.818Z,3.30
2019-03-17T22:52:47.443Z,3.57
2019-03-17T22:55:16.234Z,3.40
2019-03-17T22:57:44.786Z,3.70
2019-03-17T23:00:26.198Z,3.23
2019-03-17T23:02:54.871Z,4.00
2019-03-17T23:05:24.331Z,3.50
2019-03-17T23:07:53.156Z,3.40
2019-03-17T23:10:21.848Z,3.23
2019-03-17T23:12:50.435Z,3.00
2019-03-17T23:15:19.173Z,3.20
2019-03-17T23:17:47.812Z,3.00
2019-03-17T23:20:16.824Z,2.67
2019-03-17T23:22:45.632Z,2.70
2019-03-17T23:25:14.238Z,2.93
2019-03-17T23:27:42.741Z,2.83
2019-03-17T23:30:21.554Z,2.70
2019-03-17T23:32:50.136Z,2.80
2019-03-17T23:35:18.647Z,2.90
2019-03-17T23:37:47.232Z,2.60
2019-03-17T23:40:17.007Z,3.08
2019-03-17T23:42:45.478Z,2.77
2019-03-17T23:45:14.183Z,3.10
2019-03-17T23:47:42.726Z,3.10
2019-03-17T23:50:15.658Z,3.47
2019-03-17T23:52:44.279Z,3.30
2019-03-17T23:55:15.895Z,3.65
2019-03-17T23:57:45.280Z,3.33
